Time;durP1;ratioP1;P1;durP2;ratioP2;P2;SDS_P1;SDS_P2;PMS_P1;PMS_P2;Temp;Humidity;BMP_temperature;BMP_pressure;BME280_temperature;BME280_humidity;BME280_pressure;Samples;Min_cycle;Max_cycle;Signal;HPM_P1;HPM_P2
2022/03/15 00:04:23;;;;;;;38.35;22.05;;;;;;;;;;10287513;28;20370;-68
2022/03/15 00:09:23;;;;;;;41.65;27.17;;;;;;;;;;10289029;28;20030;-70
2022/03/15 00:14:24;;;;;;;50.47;24.52;;;;;;;;;;10287067;28;20406;-70
2022/03/15 00:19:24;;;;;;;58.30;23.02;;;;;;;;;;10289344;28;20027;-71
2022/03/15 00:24:25;;;;;;;40.70;19.83;;;;;;;;;;10302726;28;20422;-69
2022/03/15 00:29:25;;;;;;;44.75;23.27;;;;;;;;;;10287041;28;20027;-68
2022/03/15 00:34:26;;;;;;;42.03;23.67;;;;;;;;;;10286251;28;20162;-73
2022/03/15 00:39:26;;;;;;;48.03;24.35;;;;;;;;;;10302954;28;20030;-69
2022/03/15 00:44:26;;;;;;;33.78;21.95;;;;;;;;;;10286313;28;20113;-73
2022/03/15 00:49:27;;;;;;;35.80;22.33;;;;;;;;;;10286730;28;20027;-73
2022/03/15 00:54:27;;;;;;;46.45;26.73;;;;;;;;;;10285879;28;20026;-72
2022/03/15 00:59:28;;;;;;;44.67;25.38;;;;;;;;;;10301862;28;20055;-75
2022/03/15 01:04:28;;;;;;;54.85;23.20;;;;;;;;;;10285562;28;20025;-69
2022/03/15 01:09:28;;;;;;;21.40;15.13;;;;;;;;;;10286755;28;20345;-70
2022/03/15 01:14:29;;;;;;;23.30;14.07;;;;;;;;;;10284623;28;20029;-75
2022/03/15 01:19:29;;;;;;;22.80;16.20;;;;;;;;;;10285121;28;20073;-72
2022/03/15 01:24:30;;;;;;;26.75;16.30;;;;;;;;;;10300863;28;20254;-69
2022/03/15 01:29:30;;;;;;;20.63;12.77;;;;;;;;;;10300884;28;20105;-69
2022/03/15 01:34:31;;;;;;;16.92;11.70;;;;;;;;;;10283060;28;20556;-69
2022/03/15 01:39:31;;;;;;;15.47;10.90;;;;;;;;;;10284688;28;20023;-71
2022/03/15 01:44:33;;;;;;;31.87;17.70;;;;;;;;;;10284476;28;20499;-73
2022/03/15 01:49:34;;;;;;;30.30;20.50;;;;;;;;;;10284270;28;20045;-68
2022/03/15 01:54:35;;;;;;;15.35;12.27;;;;;;;;;;10283850;28;20101;-73
2022/03/15 01:59:36;;;;;;;23.55;13.23;;;;;;;;;;10282634;28;20532;-72
2022/03/15 02:04:37;;;;;;;26.45;16.83;;;;;;;;;;10299209;28;20026;-70
2022/03/15 02:09:37;;;;;;;29.92;17.95;;;;;;;;;;10299930;28;20035;-73
2022/03/15 02:14:37;;;;;;;34.90;18.45;;;;;;;;;;10282947;28;20114;-72
2022/03/15 02:19:38;;;;;;;26.30;15.70;;;;;;;;;;10282792;28;20022;-74
2022/03/15 02:24:39;;;;;;;26.00;16.27;;;;;;;;;;10283051;28;20019;-70
2022/03/15 02:29:39;;;;;;;25.33;15.85;;;;;;;;;;10281471;28;20026;-69
2022/03/15 02:34:39;;;;;;;21.08;13.90;;;;;;;;;;10283072;28;20023;-74
2022/03/15 02:39:39;;;;;;;20.00;11.07;;;;;;;;;;10298656;28;20023;-69
2022/03/15 02:44:40;;;;;;;27.00;16.20;;;;;;;;;;10281491;28;20102;-70
2022/03/15 02:49:40;;;;;;;18.90;11.73;;;;;;;;;;10288382;28;20022;-68
2022/03/15 02:54:41;;;;;;;20.70;12.33;;;;;;;;;;10290333;28;20026;-70
2022/03/15 02:59:42;;;;;;;18.30;13.38;;;;;;;;;;10290149;28;20133;-71
2022/03/15 03:04:43;;;;;;;25.08;13.00;;;;;;;;;;10289662;28;20023;-69
2022/03/15 03:09:44;;;;;;;24.25;15.75;;;;;;;;;;10292076;28;20061;-75
2022/03/15 03:14:48;;;;;;;27.73;16.80;;;;;;;;;;10306171;28;20107;-71
2022/03/15 03:19:48;;;;;;;19.77;13.90;;;;;;;;;;10290384;28;20270;-70
2022/03/15 03:24:50;;;;;;;17.77;9.68;;;;;;;;;;10289315;28;20489;-72
2022/03/15 03:29:50;;;;;;;15.10;10.23;;;;;;;;;;10288240;28;20030;-72
2022/03/15 03:34:51;;;;;;;14.63;12.87;;;;;;;;;;10288772;28;20022;-71
2022/03/15 03:39:51;;;;;;;16.92;12.02;;;;;;;;;;10304949;28;20481;-71
2022/03/15 03:44:52;;;;;;;14.88;9.02;;;;;;;;;;10290347;28;20026;-70
2022/03/15 03:49:52;;;;;;;16.00;14.15;;;;;;;;;;10288030;28;20026;-69
2022/03/15 03:54:52;;;;;;;20.30;13.57;;;;;;;;;;10289264;28;20027;-71
2022/03/15 03:59:53;;;;;;;22.87;12.57;;;;;;;;;;10287370;28;20054;-71
2022/03/15 04:04:54;;;;;;;17.17;13.15;;;;;;;;;;10288176;28;20023;-77
2022/03/15 04:09:54;;;;;;;23.25;16.13;;;;;;;;;;10303442;28;20508;-72
2022/03/15 04:14:58;;;;;;;21.40;15.13;;;;;;;;;;10288440;28;20152;-72
2022/03/15 04:19:58;;;;;;;25.50;13.88;;;;;;;;;;10288298;28;20485;-72
2022/03/15 04:24:58;;;;;;;25.73;14.00;;;;;;;;;;10286748;28;20030;-74
2022/03/15 04:29:59;;;;;;;22.67;15.77;;;;;;;;;;10286327;28;20265;-71
2022/03/15 04:34:59;;;;;;;30.25;26.98;;;;;;;;;;10282870;28;20026;-71
2022/03/15 04:40:00;;;;;;;29.53;26.37;;;;;;;;;;10285699;28;20023;-73
2022/03/15 04:45:01;;;;;;;32.22;27.55;;;;;;;;;;10284045;28;20401;-71
2022/03/15 04:50:01;;;;;;;29.75;23.60;;;;;;;;;;10285758;28;20030;-76
2022/03/15 04:55:02;;;;;;;31.00;22.10;;;;;;;;;;10286829;28;20432;-74
2022/03/15 05:00:08;;;;;;;38.80;23.55;;;;;;;;;;10285523;28;20059;-75
2022/03/15 05:05:08;;;;;;;34.33;22.00;;;;;;;;;;10301317;28;20034;-74
2022/03/15 05:15:28;;;;;;;58.70;37.13;;;;;;;;;;10285967;28;20031;-73
2022/03/15 05:20:31;;;;;;;62.72;38.50;;;;;;;;;;10284623;28;20022;-70
2022/03/15 05:25:32;;;;;;;70.32;44.15;;;;;;;;;;10284769;28;20405;-73
2022/03/15 05:30:32;;;;;;;61.38;34.65;;;;;;;;;;10283627;28;20029;-74
2022/03/15 05:35:32;;;;;;;73.57;43.47;;;;;;;;;;10282915;28;20037;-74
2022/03/15 05:40:34;;;;;;;57.45;36.05;;;;;;;;;;10285114;28;20019;-76
2022/03/15 05:45:34;;;;;;;53.92;33.83;;;;;;;;;;10283868;28;20038;-71
2022/03/15 05:50:34;;;;;;;63.43;31.93;;;;;;;;;;10283550;28;20046;-74
2022/03/15 05:55:35;;;;;;;54.53;31.77;;;;;;;;;;10282780;28;20286;-71
2022/03/15 06:00:36;;;;;;;59.85;29.90;;;;;;;;;;10298803;28;20047;-71
2022/03/15 06:05:37;;;;;;;51.75;28.10;;;;;;;;;;10258409;28;20098;-76
2022/03/15 06:10:38;;;;;;;63.47;31.67;;;;;;;;;;10259569;28;20034;-78
2022/03/15 06:15:38;;;;;;;61.80;27.40;;;;;;;;;;10258084;28;20101;-72
2022/03/15 06:20:38;;;;;;;69.10;29.85;;;;;;;;;;10283154;28;20449;-72
2022/03/15 06:25:39;;;;;;;59.65;29.92;;;;;;;;;;10282075;28;20031;-70
2022/03/15 06:30:40;;;;;;;71.13;30.77;;;;;;;;;;10281635;28;20026;-70
2022/03/15 06:35:46;;;;;;;55.90;27.45;;;;;;;;;;10283971;28;20069;-71
2022/03/15 06:40:47;;;;;;;58.22;31.15;;;;;;;;;;10282188;28;20023;-74
2022/03/15 06:45:48;;;;;;;60.63;26.55;;;;;;;;;;10297535;28;20038;-75
2022/03/15 06:50:48;;;;;;;50.80;21.85;;;;;;;;;;10281915;28;20030;-71
2022/03/15 06:55:48;;;;;;;43.53;19.75;;;;;;;;;;10281131;28;20114;-71
2022/03/15 07:00:49;;;;;;;46.43;19.30;;;;;;;;;;10278906;28;20030;-78
2022/03/15 07:05:49;;;;;;;47.33;21.83;;;;;;;;;;10281234;28;20277;-71
2022/03/15 07:10:49;;;;;;;46.15;22.40;;;;;;;;;;10279553;28;20026;-74
2022/03/15 07:15:50;;;;;;;52.50;24.20;;;;;;;;;;10274765;28;20105;-75
2022/03/15 07:20:50;;;;;;;49.78;21.63;;;;;;;;;;10276874;28;20023;-73
2022/03/15 07:25:50;;;;;;;47.47;23.20;;;;;;;;;;10282318;28;20539;-69
2022/03/15 07:30:51;;;;;;;45.42;22.98;;;;;;;;;;10279496;28;20089;-70
2022/03/15 07:35:51;;;;;;;49.78;24.83;;;;;;;;;;10300241;28;20042;-74
2022/03/15 07:40:52;;;;;;;44.03;21.48;;;;;;;;;;10285897;28;20023;-74
2022/03/15 07:45:53;;;;;;;42.60;20.08;;;;;;;;;;10286712;28;20042;-73
2022/03/15 07:50:53;;;;;;;47.97;20.20;;;;;;;;;;10286381;28;20054;-70
2022/03/15 07:55:54;;;;;;;50.00;21.25;;;;;;;;;;10281206;28;20473;-73
2022/03/15 08:00:56;;;;;;;47.65;23.10;;;;;;;;;;10296482;28;20098;-75
2022/03/15 08:05:57;;;;;;;37.47;18.67;;;;;;;;;;10283848;28;20022;-71
2022/03/15 08:10:57;;;;;;;48.00;23.15;;;;;;;;;;10280747;28;20453;-69
2022/03/15 08:15:57;;;;;;;45.70;21.20;;;;;;;;;;10299262;28;20529;-67
2022/03/15 08:20:59;;;;;;;41.70;18.30;;;;;;;;;;10282830;28;20405;-69
2022/03/15 08:25:59;;;;;;;30.67;16.48;;;;;;;;;;10282640;28;20029;-68
2022/03/15 08:31:00;;;;;;;29.63;15.40;;;;;;;;;;10284485;28;20023;-73
2022/03/15 08:36:00;;;;;;;29.02;15.27;;;;;;;;;;10282599;28;20019;-76
2022/03/15 08:41:01;;;;;;;34.00;16.17;;;;;;;;;;10280559;28;20023;-71
2022/03/15 08:46:01;;;;;;;37.95;14.70;;;;;;;;;;10280776;28;20027;-68
2022/03/15 08:51:02;;;;;;;30.88;16.80;;;;;;;;;;10281822;28;20061;-69
2022/03/15 08:56:02;;;;;;;29.50;17.40;;;;;;;;;;10298206;28;20154;-68
2022/03/15 09:01:02;;;;;;;40.72;19.48;;;;;;;;;;10282323;28;20026;-68
2022/03/15 09:06:03;;;;;;;34.85;17.35;;;;;;;;;;10281923;28;20034;-73
2022/03/15 09:11:03;;;;;;;43.45;20.55;;;;;;;;;;10297284;28;20474;-68
2022/03/15 09:16:05;;;;;;;40.25;22.02;;;;;;;;;;10281911;28;20157;-66
2022/03/15 09:21:09;;;;;;;45.67;21.90;;;;;;;;;;10280590;28;20046;-69
2022/03/15 09:26:09;;;;;;;51.90;22.55;;;;;;;;;;10282071;28;20033;-71
2022/03/15 09:31:10;;;;;;;42.50;22.47;;;;;;;;;;10296600;28;20022;-71
2022/03/15 09:36:11;;;;;;;40.90;20.03;;;;;;;;;;10280016;28;20473;-72
2022/03/15 09:41:14;;;;;;;46.53;22.85;;;;;;;;;;10280338;28;20764;-69
2022/03/15 09:46:16;;;;;;;41.75;21.10;;;;;;;;;;10276273;28;20066;-74
2022/03/15 09:51:17;;;;;;;48.30;21.27;;;;;;;;;;10258375;28;20114;-73
2022/03/15 09:56:18;;;;;;;50.53;24.05;;;;;;;;;;10242475;28;20435;-75
2022/03/15 10:01:18;;;;;;;43.53;20.80;;;;;;;;;;10258900;28;20094;-70
2022/03/15 10:06:20;;;;;;;42.03;21.47;;;;;;;;;;10287659;28;20117;-71
2022/03/15 10:11:23;;;;;;;42.78;20.75;;;;;;;;;;10281507;28;20366;-71
2022/03/15 10:16:34;;;;;;;37.70;17.55;;;;;;;;;;10282223;28;20034;-70
2022/03/15 10:21:38;;;;;;;31.73;16.88;;;;;;;;;;10283619;28;20493;-72
2022/03/15 10:26:39;;;;;;;36.63;17.80;;;;;;;;;;10297904;28;20045;-71
2022/03/15 10:31:39;;;;;;;34.72;16.80;;;;;;;;;;10280758;28;20571;-71
2022/03/15 10:36:42;;;;;;;31.15;14.30;;;;;;;;;;10298144;28;20170;-74
2022/03/15 10:41:46;;;;;;;28.33;15.57;;;;;;;;;;10282389;28;20476;-72
2022/03/15 10:47:01;;;;;;;34.85;15.88;;;;;;;;;;10267542;28;20043;-74
2022/03/15 10:52:01;;;;;;;25.30;11.23;;;;;;;;;;10281500;28;20030;-75
2022/03/15 10:57:01;;;;;;;17.67;10.47;;;;;;;;;;10281013;28;20458;-71
2022/03/15 11:02:02;;;;;;;13.32;7.55;;;;;;;;;;10281512;28;20638;-74
2022/03/15 11:07:02;;;;;;;18.45;7.55;;;;;;;;;;10279759;28;20482;-74
2022/03/15 11:12:05;;;;;;;13.87;5.43;;;;;;;;;;10287707;28;20026;-74
2022/03/15 11:17:07;;;;;;;11.10;5.40;;;;;;;;;;10288547;28;20282;-70
2022/03/15 11:22:08;;;;;;;16.50;6.38;;;;;;;;;;10288773;28;20029;-72
2022/03/15 11:27:12;;;;;;;13.30;5.97;;;;;;;;;;10287979;28;20033;-74
2022/03/15 11:32:14;;;;;;;10.48;6.10;;;;;;;;;;10302516;28;20523;-69
2022/03/15 11:37:16;;;;;;;9.80;5.53;;;;;;;;;;10287730;28;20047;-76
2022/03/15 11:42:17;;;;;;;15.70;7.13;;;;;;;;;;10303798;28;20532;-74
2022/03/15 11:47:41;;;;;;;13.55;5.70;;;;;;;;;;10286975;28;20390;-76
2022/03/15 11:53:03;;;;;;;11.18;5.30;;;;;;;;;;10294375;28;20035;-75
2022/03/15 11:58:05;;;;;;;15.80;5.68;;;;;;;;;;10302836;28;20054;-72
2022/03/15 12:03:06;;;;;;;17.65;5.72;;;;;;;;;;10287028;28;20041;-71
2022/03/15 12:08:12;;;;;;;12.60;5.18;;;;;;;;;;10302220;28;20454;-73
2022/03/15 12:13:14;;;;;;;11.45;4.32;;;;;;;;;;10301686;28;20030;-73
2022/03/15 12:18:30;;;;;;;8.32;4.18;;;;;;;;;;10287230;28;20035;-77
2022/03/15 12:23:57;;;;;;;9.05;3.88;;;;;;;;;;10248938;28;20553;-77
2022/03/15 12:28:57;;;;;;;19.25;9.30;;;;;;;;;;10261984;28;20074;-75
2022/03/15 12:34:02;;;;;;;9.80;4.60;;;;;;;;;;10297375;28;20465;-76
2022/03/15 12:39:10;;;;;;;18.20;4.90;;;;;;;;;;10285418;28;20019;-74
2022/03/15 12:44:10;;;;;;;8.73;4.90;;;;;;;;;;10285117;28;20474;-71
2022/03/15 12:49:15;;;;;;;9.13;3.95;;;;;;;;;;10285203;28;20015;-73
2022/03/15 12:54:16;;;;;;;8.77;3.92;;;;;;;;;;10300082;28;20118;-74
2022/03/15 12:59:21;;;;;;;8.02;4.43;;;;;;;;;;10284308;28;20500;-71
2022/03/15 13:04:21;;;;;;;9.98;4.43;;;;;;;;;;10284781;28;20039;-75
2022/03/15 13:09:25;;;;;;;13.77;3.70;;;;;;;;;;10301738;28;20023;-74
2022/03/15 13:14:33;;;;;;;7.55;3.42;;;;;;;;;;10264223;28;20050;-73
2022/03/15 13:19:35;;;;;;;11.18;3.90;;;;;;;;;;10284058;28;20529;-76
2022/03/15 13:24:36;;;;;;;9.45;3.50;;;;;;;;;;10286937;28;20037;-77
2022/03/15 13:29:39;;;;;;;6.60;3.55;;;;;;;;;;10299715;28;20174;-72
2022/03/15 13:34:40;;;;;;;11.50;3.00;;;;;;;;;;10283567;28;20022;-73
2022/03/15 13:39:40;;;;;;;9.30;3.50;;;;;;;;;;10281840;28;20583;-71
2022/03/15 13:44:41;;;;;;;6.47;3.30;;;;;;;;;;10299322;28;20485;-71
2022/03/15 13:49:42;;;;;;;9.80;3.38;;;;;;;;;;10299354;28;20022;-71
2022/03/15 13:55:00;;;;;;;6.65;3.30;;;;;;;;;;10282514;28;20019;-74
2022/03/15 14:00:08;;;;;;;14.25;3.63;;;;;;;;;;10283230;28;20182;-71
2022/03/15 14:05:14;;;;;;;12.52;3.55;;;;;;;;;;10282430;28;20062;-70
2022/03/15 14:10:17;;;;;;;10.32;4.22;;;;;;;;;;10297308;28;20035;-69
2022/03/15 14:15:20;;;;;;;8.07;3.72;;;;;;;;;;10281715;28;20404;-71
2022/03/15 14:20:22;;;;;;;9.60;3.55;;;;;;;;;;10281235;28;20497;-72
2022/03/15 14:25:32;;;;;;;5.57;3.40;;;;;;;;;;10282274;28;20026;-74
2022/03/15 14:30:33;;;;;;;7.40;3.70;;;;;;;;;;10281155;28;20543;-75
2022/03/15 14:35:36;;;;;;;6.53;3.30;;;;;;;;;;10297516;28;20023;-70
2022/03/15 14:40:38;;;;;;;8.82;3.33;;;;;;;;;;10281224;28;20509;-76
2022/03/15 14:45:38;;;;;;;10.40;3.95;;;;;;;;;;10282404;28;20023;-72
2022/03/15 14:50:39;;;;;;;6.47;3.90;;;;;;;;;;10279185;28;20068;-73
2022/03/15 14:55:40;;;;;;;12.45;3.95;;;;;;;;;;10242739;28;20269;-74
2022/03/15 15:00:51;;;;;;;10.90;3.60;;;;;;;;;;10293253;28;20066;-76
2022/03/15 15:05:54;;;;;;;8.60;3.35;;;;;;;;;;10279350;28;20031;-75
2022/03/15 15:10:55;;;;;;;5.47;2.88;;;;;;;;;;10282626;28;20034;-72
2022/03/15 15:15:55;;;;;;;7.57;3.58;;;;;;;;;;10278858;28;20034;-70
2022/03/15 15:20:56;;;;;;;6.35;3.17;;;;;;;;;;10280031;28;20019;-73
2022/03/15 15:25:57;;;;;;;16.25;3.72;;;;;;;;;;10280695;28;20552;-72
2022/03/15 15:30:57;;;;;;;8.45;3.40;;;;;;;;;;10279972;28;20034;-73
2022/03/15 15:35:58;;;;;;;10.15;3.30;;;;;;;;;;10279389;28;20547;-75
2022/03/15 15:40:58;;;;;;;7.15;3.80;;;;;;;;;;10296010;28;20031;-70
2022/03/15 15:45:59;;;;;;;10.07;3.47;;;;;;;;;;10293851;28;20029;-70
2022/03/15 15:51:00;;;;;;;10.20;5.00;;;;;;;;;;10279469;28;20568;-74
2022/03/15 15:56:01;;;;;;;10.13;5.03;;;;;;;;;;10283702;28;20045;-70
2022/03/15 16:01:06;;;;;;;17.85;6.03;;;;;;;;;;10287754;28;20093;-69
2022/03/15 16:06:07;;;;;;;18.25;7.63;;;;;;;;;;10285779;28;20114;-78
2022/03/15 16:11:07;;;;;;;20.17;7.38;;;;;;;;;;10287228;28;20408;-73
2022/03/15 16:16:09;;;;;;;18.38;7.72;;;;;;;;;;10285878;28;20416;-71
2022/03/15 16:21:10;;;;;;;16.58;7.47;;;;;;;;;;10286297;28;20030;-71
2022/03/15 16:26:10;;;;;;;24.77;9.07;;;;;;;;;;10286276;28;20029;-73
2022/03/15 16:31:11;;;;;;;35.93;10.57;;;;;;;;;;10284652;28;20030;-70
2022/03/15 16:36:12;;;;;;;31.95;10.60;;;;;;;;;;10278552;28;20030;-70
2022/03/15 16:41:13;;;;;;;30.77;11.85;;;;;;;;;;10285412;28;20069;-72
2022/03/15 16:46:15;;;;;;;32.22;12.57;;;;;;;;;;10284812;28;20027;-75
2022/03/15 16:51:15;;;;;;;26.80;9.18;;;;;;;;;;10285998;28;20516;-70
2022/03/15 16:56:16;;;;;;;21.83;9.43;;;;;;;;;;10284607;28;20055;-73
2022/03/15 17:01:16;;;;;;;31.52;9.60;;;;;;;;;;10286658;28;20043;-73
2022/03/15 17:06:17;;;;;;;25.27;11.20;;;;;;;;;;10300082;28;20022;-75
2022/03/15 17:11:20;;;;;;;27.25;9.57;;;;;;;;;;10279722;28;20096;-75
2022/03/15 17:16:20;;;;;;;28.77;9.65;;;;;;;;;;10300161;28;20477;-76
2022/03/15 17:21:26;;;;;;;31.90;10.07;;;;;;;;;;10283739;28;20038;-75
2022/03/15 17:26:27;;;;;;;19.13;10.07;;;;;;;;;;10299265;28;20597;-76
2022/03/15 17:31:35;;;;;;;33.80;10.68;;;;;;;;;;10299818;28;20389;-70
2022/03/15 17:36:37;;;;;;;30.83;11.57;;;;;;;;;;10299705;28;20065;-73
2022/03/15 17:41:45;;;;;;;27.13;11.02;;;;;;;;;;10283252;28;20034;-77
2022/03/15 17:46:46;;;;;;;40.80;12.10;;;;;;;;;;10299302;28;20069;-76
2022/03/15 17:51:46;;;;;;;32.38;13.25;;;;;;;;;;10299242;28;20462;-75
2022/03/15 17:56:49;;;;;;;35.20;13.95;;;;;;;;;;10263410;28;20659;-74
2022/03/15 18:01:54;;;;;;;26.38;10.18;;;;;;;;;;10281194;28;20039;-70
2022/03/15 18:06:55;;;;;;;37.67;12.85;;;;;;;;;;10263072;28;20031;-69
2022/03/15 18:11:56;;;;;;;36.33;12.00;;;;;;;;;;10282463;28;20413;-74
2022/03/15 18:16:58;;;;;;;39.67;14.82;;;;;;;;;;10297103;28;20121;-71
2022/03/15 18:21:59;;;;;;;47.65;16.27;;;;;;;;;;10281981;28;20601;-74
2022/03/15 18:27:00;;;;;;;41.03;13.77;;;;;;;;;;10281358;28;20030;-75
2022/03/15 18:32:02;;;;;;;44.97;17.48;;;;;;;;;;10281841;28;20019;-71
2022/03/15 18:37:03;;;;;;;35.35;14.38;;;;;;;;;;10282324;28;20710;-74
2022/03/15 18:42:03;;;;;;;38.63;13.65;;;;;;;;;;10281757;28;20122;-74
2022/03/15 18:47:03;;;;;;;51.70;15.50;;;;;;;;;;10279843;28;20034;-72
2022/03/15 18:52:04;;;;;;;42.45;15.13;;;;;;;;;;10280905;28;20479;-75
2022/03/15 18:57:04;;;;;;;33.03;14.80;;;;;;;;;;10280571;28;20440;-71
2022/03/15 19:02:06;;;;;;;50.23;17.47;;;;;;;;;;10280369;28;20318;-73
2022/03/15 19:07:06;;;;;;;35.75;14.30;;;;;;;;;;10281227;28;20082;-71
2022/03/15 19:12:07;;;;;;;45.47;15.43;;;;;;;;;;10281495;28;20547;-75
2022/03/15 19:17:07;;;;;;;44.15;15.45;;;;;;;;;;10295926;28;20370;-75
2022/03/15 19:22:09;;;;;;;40.15;15.25;;;;;;;;;;10256422;28;20035;-75
2022/03/15 19:27:09;;;;;;;29.52;14.88;;;;;;;;;;10248320;28;20111;-70
2022/03/15 19:32:10;;;;;;;32.42;14.20;;;;;;;;;;10285017;28;20026;-75
2022/03/15 19:37:14;;;;;;;37.78;14.85;;;;;;;;;;10290257;28;20412;-75
2022/03/15 19:42:15;;;;;;;34.90;16.42;;;;;;;;;;10286703;28;20494;-71
2022/03/15 19:47:16;;;;;;;48.88;15.40;;;;;;;;;;10288427;28;20508;-71
2022/03/15 19:52:17;;;;;;;43.47;17.50;;;;;;;;;;10285545;28;20027;-76
2022/03/15 19:57:18;;;;;;;45.30;18.88;;;;;;;;;;10284643;28;20043;-70
2022/03/15 20:02:19;;;;;;;43.60;17.77;;;;;;;;;;10300535;28;20031;-75
2022/03/15 20:07:22;;;;;;;38.63;16.23;;;;;;;;;;10286819;28;20372;-78
2022/03/15 20:12:31;;;;;;;44.78;18.40;;;;;;;;;;10286448;28;20054;-73
2022/03/15 20:17:35;;;;;;;28.35;13.20;;;;;;;;;;10286603;28;20042;-70
2022/03/15 20:22:37;;;;;;;30.70;13.77;;;;;;;;;;10302862;28;20073;-75
2022/03/15 20:27:39;;;;;;;28.30;13.25;;;;;;;;;;10286170;28;20627;-70
2022/03/15 20:32:40;;;;;;;35.65;13.90;;;;;;;;;;10287108;28;20078;-71
2022/03/15 20:37:41;;;;;;;29.65;13.20;;;;;;;;;;10287914;28;20078;-75
2022/03/15 20:48:00;;;;;;;25.23;12.27;;;;;;;;;;10286050;28;20026;-74
2022/03/15 20:53:04;;;;;;;32.03;12.93;;;;;;;;;;10286587;28;20019;-72
2022/03/15 20:58:05;;;;;;;22.67;11.68;;;;;;;;;;10285632;28;20130;-74
2022/03/15 21:03:05;;;;;;;17.65;8.40;;;;;;;;;;10284663;28;20579;-72
2022/03/15 21:08:07;;;;;;;21.25;10.32;;;;;;;;;;10286436;28;20019;-72
2022/03/15 21:13:08;;;;;;;19.70;11.23;;;;;;;;;;10285309;28;20495;-73
2022/03/15 21:18:09;;;;;;;20.87;10.63;;;;;;;;;;10283788;28;20033;-72
2022/03/15 21:23:09;;;;;;;19.38;9.65;;;;;;;;;;10285649;28;20358;-74
2022/03/15 21:28:10;;;;;;;18.08;9.27;;;;;;;;;;10284994;28;20418;-73
2022/03/15 21:33:10;;;;;;;17.58;8.82;;;;;;;;;;10283346;28;20489;-72
2022/03/15 21:38:10;;;;;;;20.60;9.23;;;;;;;;;;10285648;28;20037;-78
2022/03/15 21:43:12;;;;;;;15.98;8.52;;;;;;;;;;10300496;28;20093;-73
2022/03/15 21:48:13;;;;;;;20.88;9.07;;;;;;;;;;10284391;28;20584;-74
2022/03/15 21:53:18;;;;;;;16.55;8.95;;;;;;;;;;10284882;28;20401;-74
2022/03/15 21:58:27;;;;;;;17.30;8.13;;;;;;;;;;10284158;28;20126;-70
2022/03/15 22:03:27;;;;;;;15.05;7.20;;;;;;;;;;10284759;28;20057;-72
2022/03/15 22:08:27;;;;;;;13.57;7.43;;;;;;;;;;10283593;28;20177;-70
2022/03/15 22:13:38;;;;;;;12.43;7.22;;;;;;;;;;10283618;28;20600;-77
2022/03/15 22:18:39;;;;;;;17.92;7.95;;;;;;;;;;10253657;28;20034;-73
2022/03/15 22:23:39;;;;;;;15.20;7.38;;;;;;;;;;10259642;28;20413;-74
2022/03/15 22:28:39;;;;;;;15.43;6.95;;;;;;;;;;10242904;28;20058;-78
2022/03/15 23:26:13;;;;;;;17.90;9.35;;;;;;;;;;10284967;28;20015;-71
2022/03/15 23:31:14;;;;;;;17.55;9.52;;;;;;;;;;10289720;28;20071;-70
2022/03/15 23:36:14;;;;;;;22.50;10.38;;;;;;;;;;10290140;28;20115;-72
2022/03/15 23:41:15;;;;;;;20.77;10.32;;;;;;;;;;10288893;28;20026;-74
2022/03/15 23:46:15;;;;;;;22.42;11.90;;;;;;;;;;10289467;28;20022;-75
2022/03/15 23:51:15;;;;;;;19.15;10.05;;;;;;;;;;10289048;28;20025;-72
2022/03/15 23:56:16;;;;;;;25.38;11.48;;;;;;;;;;10290089;28;20589;-69
